Time;durP1;ratioP1;P1;durP2;ratioP2;P2;SDS_P1;SDS_P2;PMS_P1;PMS_P2;Temp;Humidity;BMP_temperature;BMP_pressure;BME280_temperature;BME280_humidity;BME280_pressure;Samples;Min_cycle;Max_cycle;Signal;HPM_P1;HPM_P2
2023/04/08 00:01:17;;;;;;;14.00;6.30;;;;;;;6.11;100.00;101558.06;5093087;28;20800;-68
2023/04/08 00:03:44;;;;;;;16.07;6.13;;;;;;;6.13;100.00;101560.50;5093517;28;20544;-68
2023/04/08 00:06:12;;;;;;;12.63;5.50;;;;;;;6.21;100.00;101557.41;5093127;28;20552;-68
2023/04/08 00:08:39;;;;;;;16.33;5.93;;;;;;;6.21;100.00;101560.91;5092237;28;20530;-68
2023/04/08 00:11:05;;;;;;;17.20;6.90;;;;;;;6.25;100.00;101563.91;5092948;28;20847;-68
2023/04/08 00:13:32;;;;;;;17.53;7.00;;;;;;;6.22;100.00;101569.78;5093204;28;20456;-68
2023/04/08 00:15:59;;;;;;;17.57;6.80;;;;;;;6.23;100.00;101574.91;5092042;28;20484;-68
2023/04/08 00:18:26;;;;;;;18.83;7.50;;;;;;;6.28;100.00;101572.28;5092357;28;20456;-68
2023/04/08 00:20:52;;;;;;;14.83;6.93;;;;;;;6.25;100.00;101572.78;5093233;28;20456;-70
2023/04/08 00:23:21;;;;;;;14.27;6.37;;;;;;;6.26;100.00;101568.22;5091935;28;20961;-69
2023/04/08 00:25:47;;;;;;;17.77;7.50;;;;;;;6.30;100.00;101572.03;5093602;28;20464;-68
2023/04/08 00:28:14;;;;;;;15.13;5.97;;;;;;;6.26;100.00;101574.41;5090498;28;20452;-67
2023/04/08 00:30:41;;;;;;;20.27;7.60;;;;;;;6.13;100.00;101577.44;5092749;28;20555;-68
2023/04/08 00:33:08;;;;;;;21.70;7.07;;;;;;;6.14;100.00;101571.00;5093743;28;20444;-67
2023/04/08 00:35:35;;;;;;;19.63;7.23;;;;;;;6.07;100.00;101565.81;5093684;28;22223;-67
2023/04/08 00:38:02;;;;;;;17.37;7.73;;;;;;;6.16;100.00;101566.22;5093050;28;20547;-67
2023/04/08 00:40:30;;;;;;;22.47;7.90;;;;;;;6.19;100.00;101573.75;5093141;28;20506;-67
2023/04/08 00:42:57;;;;;;;17.60;7.60;;;;;;;6.20;100.00;101566.53;5092212;28;20559;-67
2023/04/08 00:45:24;;;;;;;18.10;6.77;;;;;;;6.30;100.00;101570.16;5094177;28;20848;-67
2023/04/08 00:47:51;;;;;;;14.27;6.50;;;;;;;6.29;100.00;101582.00;5090890;28;20471;-67
2023/04/08 00:50:18;;;;;;;20.30;8.43;;;;;;;6.18;100.00;101579.41;5091315;28;20498;-67
2023/04/08 00:52:45;;;;;;;19.03;8.07;;;;;;;6.19;100.00;101576.44;5091808;28;20547;-67
2023/04/08 00:55:11;;;;;;;25.37;9.30;;;;;;;6.11;100.00;101566.13;5092514;28;20543;-67
2023/04/08 00:57:39;;;;;;;24.97;8.30;;;;;;;6.14;100.00;101565.63;5088891;28;20456;-67
2023/04/08 01:00:08;;;;;;;20.90;8.37;;;;;;;6.08;100.00;101563.94;5091977;28;20472;-67
2023/04/08 01:02:42;;;;;;;19.73;7.47;;;;;;;6.05;100.00;101559.84;5091417;28;20543;-67
2023/04/08 01:05:15;;;;;;;19.50;8.10;;;;;;;6.13;100.00;101561.31;5093143;28;20451;-67
2023/04/08 01:07:46;;;;;;;23.50;9.80;;;;;;;6.12;100.00;101559.69;5091028;28;20456;-67
2023/04/08 01:10:17;;;;;;;21.87;8.43;;;;;;;6.15;100.00;101569.94;5092466;28;20483;-67
2023/04/08 01:12:51;;;;;;;19.60;8.50;;;;;;;6.18;100.00;101572.13;5091504;28;20500;-67
2023/04/08 01:15:18;;;;;;;27.30;9.63;;;;;;;6.23;100.00;101566.81;5093517;28;20432;-67
2023/04/08 01:17:46;;;;;;;23.87;7.70;;;;;;;6.27;100.00;101561.78;5092109;28;20460;-67
2023/04/08 01:20:14;;;;;;;25.60;10.03;;;;;;;6.15;100.00;101563.75;5091229;28;20472;-67
2023/04/08 01:23:02;;;;;;;21.67;7.70;;;;;;;6.20;100.00;101567.34;5091111;28;20551;-67
2023/04/08 01:25:31;;;;;;;21.70;9.10;;;;;;;6.13;100.00;101572.06;5091669;28;20457;-67
2023/04/08 01:28:01;;;;;;;31.10;11.30;;;;;;;6.10;100.00;101566.38;5092096;28;20457;-67
2023/04/08 01:30:30;;;;;;;27.67;10.00;;;;;;;6.13;100.00;101568.56;5092516;28;20555;-67
2023/04/08 01:32:59;;;;;;;21.90;9.10;;;;;;;6.16;100.00;101566.22;5087371;28;20457;-67
2023/04/08 01:35:26;;;;;;;23.73;8.70;;;;;;;6.19;100.00;101568.38;5091817;28;20543;-67
2023/04/08 01:37:54;;;;;;;26.00;9.33;;;;;;;6.21;100.00;101578.91;5091399;28;20482;-68
2023/04/08 01:40:21;;;;;;;21.23;8.63;;;;;;;6.20;100.00;101582.66;5091870;28;20480;-67
2023/04/08 01:42:49;;;;;;;25.53;9.27;;;;;;;6.29;100.00;101581.19;5091079;28;20457;-67
2023/04/08 01:45:18;;;;;;;22.13;8.60;;;;;;;6.09;100.00;101580.88;5091207;28;20968;-68
2023/04/08 01:47:47;;;;;;;20.60;7.90;;;;;;;6.11;100.00;101576.91;5092159;28;20436;-68
2023/04/08 01:50:15;;;;;;;18.87;8.63;;;;;;;6.04;100.00;101578.94;5091809;28;20551;-68
2023/04/08 01:52:44;;;;;;;24.07;9.13;;;;;;;6.18;100.00;101582.91;5079275;28;20445;-67
2023/04/08 01:55:11;;;;;;;27.20;9.87;;;;;;;6.26;100.00;101593.25;5082125;28;20890;-67
2023/04/08 01:57:39;;;;;;;28.63;9.67;;;;;;;6.26;100.00;101587.88;5090640;28;21001;-67
2023/04/08 02:00:08;;;;;;;22.67;9.27;;;;;;;6.25;100.00;101594.31;5090394;28;20485;-67
2023/04/08 02:02:38;;;;;;;20.57;8.00;;;;;;;6.27;100.00;101594.06;5089853;28;20464;-67
2023/04/08 02:05:05;;;;;;;18.07;7.90;;;;;;;6.26;100.00;101593.25;5091553;28;20458;-67
2023/04/08 02:07:31;;;;;;;19.50;7.60;;;;;;;6.32;100.00;101596.81;5090359;28;20832;-67
2023/04/08 02:09:58;;;;;;;21.40;9.10;;;;;;;6.36;100.00;101595.25;5087750;28;22331;-67
2023/04/08 02:12:26;;;;;;;34.63;10.23;;;;;;;6.33;100.00;101585.00;5091684;28;20547;-67
2023/04/08 02:14:53;;;;;;;21.17;9.90;;;;;;;6.26;100.00;101587.06;5090306;28;20561;-68
2023/04/08 02:17:26;;;;;;;25.73;9.00;;;;;;;6.30;100.00;101583.63;5091633;28;20480;-67
2023/04/08 02:20:00;;;;;;;23.77;9.20;;;;;;;6.35;100.00;101579.38;5091682;28;20488;-66
2023/04/08 02:22:41;;;;;;;29.50;10.50;;;;;;;6.36;100.00;101581.00;5090453;28;20451;-67
2023/04/08 02:25:13;;;;;;;23.93;8.97;;;;;;;6.22;100.00;101585.91;5091770;28;20487;-68
2023/04/08 02:27:40;;;;;;;21.87;8.87;;;;;;;6.27;100.00;101594.06;5091388;28;20445;-67
2023/04/08 02:30:08;;;;;;;30.97;9.23;;;;;;;6.27;100.00;101588.69;5093883;28;20483;-67
2023/04/08 02:32:36;;;;;;;26.57;9.00;;;;;;;6.28;100.00;101593.81;5094866;28;20456;-67
2023/04/08 02:35:05;;;;;;;22.27;8.57;;;;;;;6.38;100.00;101611.19;5095688;28;20456;-67
2023/04/08 02:37:32;;;;;;;19.70;8.40;;;;;;;6.42;100.00;101609.59;5094419;28;20575;-67
2023/04/08 02:39:59;;;;;;;30.40;9.53;;;;;;;6.34;100.00;101605.47;5095487;28;20484;-67
2023/04/08 02:42:25;;;;;;;24.00;9.20;;;;;;;6.36;100.00;101615.97;5094888;28;20465;-67
2023/04/08 02:44:52;;;;;;;30.13;7.67;;;;;;;6.40;100.00;101619.81;5093516;28;20834;-67
2023/04/08 02:47:19;;;;;;;24.23;8.30;;;;;;;6.40;100.00;101614.41;5095056;28;20543;-67
2023/04/08 02:49:45;;;;;;;20.20;7.70;;;;;;;6.27;100.00;101619.09;5093452;28;21012;-67
2023/04/08 02:52:13;;;;;;;24.23;9.83;;;;;;;6.27;100.00;101616.38;5093506;28;20460;-67
2023/04/08 02:54:40;;;;;;;20.47;9.10;;;;;;;6.35;100.00;101622.44;5095149;28;20826;-67
2023/04/08 02:57:06;;;;;;;31.53;8.40;;;;;;;6.31;100.00;101622.91;5093514;28;20491;-67
2023/04/08 02:59:36;;;;;;;29.80;9.80;;;;;;;6.27;100.00;101620.97;5095174;28;20570;-67
2023/04/08 03:02:03;;;;;;;22.53;7.73;;;;;;;6.26;100.00;101622.84;5094202;28;20555;-67
2023/04/08 03:04:29;;;;;;;18.50;7.87;;;;;;;6.31;100.00;101630.97;5093957;28;20543;-67
2023/04/08 03:06:56;;;;;;;30.03;10.07;;;;;;;6.32;100.00;101621.84;5094106;28;20547;-67
2023/04/08 03:09:24;;;;;;;20.13;8.93;;;;;;;6.33;100.00;101617.31;5094879;28;20563;-68
2023/04/08 03:11:53;;;;;;;22.33;7.90;;;;;;;6.41;100.00;101626.81;5094784;28;20562;-67
2023/04/08 03:14:20;;;;;;;25.80;7.57;;;;;;;6.29;100.00;101627.75;5094168;28;20987;-67
2023/04/08 03:19:21;;;;;;;26.30;9.77;;;;;;;6.16;100.00;101625.38;5096945;22;20499;-80
2023/04/08 03:21:48;;;;;;;20.37;8.90;;;;;;;6.22;100.00;101626.28;5074208;28;20485;-81
2023/04/08 03:24:14;;;;;;;23.03;8.17;;;;;;;6.31;100.00;101628.28;5077371;28;20501;-82
2023/04/08 03:26:42;;;;;;;20.47;9.20;;;;;;;6.41;100.00;101633.00;5081097;28;20463;-80
2023/04/08 03:29:09;;;;;;;27.83;9.43;;;;;;;6.46;100.00;101635.78;5064119;28;20545;-80
2023/04/08 03:31:36;;;;;;;30.03;9.57;;;;;;;6.48;100.00;101635.53;5079914;28;20548;-81
2023/04/08 03:34:02;;;;;;;24.33;8.70;;;;;;;6.52;100.00;101634.78;5081862;28;20473;-81
2023/04/08 03:36:29;;;;;;;23.03;8.17;;;;;;;6.43;100.00;101641.66;5096462;28;20572;-80
2023/04/08 03:38:56;;;;;;;24.33;9.50;;;;;;;6.43;100.00;101641.66;5082355;28;20525;-80
2023/04/08 03:41:23;;;;;;;24.30;9.90;;;;;;;6.46;100.00;101641.16;5077064;28;20458;-82
2023/04/08 03:43:51;;;;;;;18.73;8.10;;;;;;;6.47;100.00;101636.59;5065505;28;20866;-81
2023/04/08 03:46:17;;;;;;;21.80;8.57;;;;;;;6.48;100.00;101635.53;5075767;28;20488;-81
2023/04/08 03:48:44;;;;;;;25.07;9.60;;;;;;;6.47;100.00;101641.97;5077942;28;20548;-81
2023/04/08 03:51:11;;;;;;;23.50;9.00;;;;;;;6.41;100.00;101643.75;5077736;28;20519;-81
2023/04/08 03:53:37;;;;;;;25.07;8.90;;;;;;;6.42;100.00;101644.56;5073464;28;20462;-81
2023/04/08 03:56:04;;;;;;;25.60;10.00;;;;;;;6.43;100.00;101649.72;5076403;28;20489;-79
2023/04/08 03:58:31;;;;;;;31.37;8.83;;;;;;;6.46;100.00;101653.78;5073516;28;20946;-79
2023/04/08 04:00:59;;;;;;;22.13;8.73;;;;;;;6.35;100.00;101649.34;5076678;28;20469;-80
2023/04/08 04:03:26;;;;;;;28.27;10.67;;;;;;;6.35;100.00;101649.34;5076914;28;20448;-80
2023/04/08 04:05:52;;;;;;;23.13;9.50;;;;;;;6.36;100.00;101648.25;5082973;28;20588;-80
2023/04/08 04:08:19;;;;;;;24.53;8.70;;;;;;;6.29;100.00;101654.66;5076863;28;20490;-80
2023/04/08 04:10:46;;;;;;;22.30;9.43;;;;;;;6.34;100.00;101655.78;5064012;28;20492;-80
2023/04/08 04:13:12;;;;;;;22.93;8.70;;;;;;;6.37;100.00;101660.66;5076794;28;20485;-80
2023/04/08 04:15:39;;;;;;;24.53;7.40;;;;;;;6.35;100.00;101665.47;5075816;28;20564;-79
2023/04/08 04:18:07;;;;;;;20.20;8.07;;;;;;;6.39;100.00;101678.19;5071737;28;20490;-79
2023/04/08 04:20:35;;;;;;;22.67;8.10;;;;;;;6.44;100.00;101669.38;5066845;28;20472;-79
2023/04/08 04:23:01;;;;;;;21.90;7.70;;;;;;;6.49;100.00;101669.44;5076269;28;20458;-78
2023/04/08 04:25:28;;;;;;;22.17;9.27;;;;;;;6.49;100.00;101688.28;5067409;28;20513;-79
2023/04/08 04:27:54;;;;;;;24.10;7.97;;;;;;;6.50;100.00;101679.97;5078324;28;20882;-79
2023/04/08 04:30:21;;;;;;;23.23;8.10;;;;;;;6.52;100.00;101679.72;5076010;28;20515;-79
2023/04/08 04:32:48;;;;;;;21.03;7.80;;;;;;;6.50;100.00;101687.22;5075108;28;20969;-79
2023/04/08 04:35:16;;;;;;;20.17;8.70;;;;;;;6.56;100.00;101681.69;5084195;28;20484;-78
2023/04/08 04:37:42;;;;;;;24.57;9.30;;;;;;;6.57;100.00;101686.00;5084507;28;20572;-79
2023/04/08 04:40:09;;;;;;;19.20;7.97;;;;;;;6.61;100.00;101690.91;5070061;28;20461;-79
2023/04/08 04:42:36;;;;;;;22.37;8.70;;;;;;;6.62;100.00;101692.53;5059823;28;20456;-79
2023/04/08 04:45:04;;;;;;;22.53;9.23;;;;;;;6.65;100.00;101687.47;5076660;28;20457;-79
2023/04/08 04:47:31;;;;;;;29.10;10.13;;;;;;;6.63;100.00;101694.16;5077036;28;20441;-79
2023/04/08 04:49:58;;;;;;;23.50;7.63;;;;;;;6.58;100.00;101690.31;5083224;28;20961;-78
2023/04/08 04:52:25;;;;;;;23.00;9.07;;;;;;;6.67;100.00;101701.47;5073890;28;20548;-79
2023/04/08 04:54:52;;;;;;;28.50;10.07;;;;;;;6.66;100.00;101699.84;5060853;28;20564;-82
2023/04/08 04:57:19;;;;;;;20.00;8.40;;;;;;;6.67;100.00;101706.06;5075536;28;20565;-80
2023/04/08 04:59:45;;;;;;;19.33;7.70;;;;;;;6.69;100.00;101703.94;5057528;28;20512;-80
2023/04/08 05:02:12;;;;;;;24.77;8.67;;;;;;;6.70;100.00;101709.06;5080444;28;20563;-80
2023/04/08 05:04:39;;;;;;;21.80;8.40;;;;;;;6.55;100.00;101714.22;5095005;28;20469;-80
2023/04/08 05:07:06;;;;;;;25.90;9.13;;;;;;;6.55;100.00;101717.75;5095336;28;20452;-80
2023/04/08 05:09:34;;;;;;;27.77;10.40;;;;;;;6.62;100.00;101709.47;5078880;28;20449;-80
2023/04/08 05:12:00;;;;;;;32.60;9.30;;;;;;;6.64;100.00;101720.84;5071664;28;20871;-80
2023/04/08 05:14:29;;;;;;;20.43;9.33;;;;;;;6.66;100.00;101715.19;5075086;28;20488;-80
2023/04/08 05:16:56;;;;;;;21.07;8.53;;;;;;;6.67;100.00;101723.00;5083741;28;20587;-80
2023/04/08 05:19:22;;;;;;;19.73;8.00;;;;;;;6.69;100.00;101728.16;5063243;28;20470;-81
2023/04/08 05:21:49;;;;;;;23.20;9.17;;;;;;;6.72;100.00;101731.16;5067330;28;20485;-79
2023/04/08 05:24:16;;;;;;;22.13;9.53;;;;;;;6.65;100.00;101735.91;5074985;28;20492;-80
2023/04/08 05:26:44;;;;;;;18.93;8.70;;;;;;;6.70;100.00;101735.19;5088760;28;20828;-81
2023/04/08 05:29:10;;;;;;;19.60;8.73;;;;;;;6.75;100.00;101740.63;5066712;28;20497;-80
2023/04/08 05:31:37;;;;;;;33.70;10.50;;;;;;;6.75;100.00;101738.75;5070452;28;20500;-81
2023/04/08 05:34:04;;;;;;;20.83;8.77;;;;;;;6.69;100.00;101741.63;5073711;28;20544;-80
2023/04/08 05:36:31;;;;;;;26.57;10.30;;;;;;;6.71;100.00;101745.69;5080065;28;20580;-81
2023/04/08 05:38:57;;;;;;;24.47;10.40;;;;;;;6.81;100.00;101745.03;5085569;28;20457;-80
2023/04/08 05:41:27;;;;;;;27.13;9.60;;;;;;;6.82;100.00;101747.50;5075048;28;20532;-81
2023/04/08 05:43:55;;;;;;;26.13;9.17;;;;;;;6.85;100.00;101750.75;5075367;28;20485;-80
2023/04/08 05:46:21;;;;;;;20.13;7.97;;;;;;;6.90;100.00;101759.69;5066509;28;20444;-81
2023/04/08 05:48:48;;;;;;;29.47;11.03;;;;;;;6.92;100.00;101759.47;5093436;28;20965;-80
2023/04/08 05:51:16;;;;;;;27.07;10.67;;;;;;;6.95;100.00;101759.78;5080071;28;20445;-82
2023/04/08 05:53:44;;;;;;;25.30;9.60;;;;;;;6.92;100.00;101756.78;5076118;28;20460;-81
2023/04/08 05:56:11;;;;;;;23.43;9.50;;;;;;;6.98;100.00;101764.66;5075332;28;20966;-81
2023/04/08 05:58:38;;;;;;;18.67;8.53;;;;;;;7.04;100.00;101771.78;5075574;28;20520;-81
2023/04/08 06:01:06;;;;;;;20.90;8.73;;;;;;;7.10;100.00;101763.75;5069788;28;20557;-83
2023/04/08 06:03:32;;;;;;;25.07;9.67;;;;;;;7.14;100.00;101776.50;5072307;28;20926;-80
2023/04/08 06:05:59;;;;;;;22.47;8.67;;;;;;;7.05;100.00;101778.78;5086654;28;21067;-81
2023/04/08 06:08:26;;;;;;;21.33;8.03;;;;;;;7.14;100.00;101778.38;5079353;28;20448;-81
2023/04/08 06:10:53;;;;;;;23.20;9.23;;;;;;;7.17;100.00;101780.53;5079263;28;20457;-81
2023/04/08 06:13:20;;;;;;;26.47;10.67;;;;;;;7.18;100.00;101785.72;5064136;28;20466;-81
2023/04/08 06:15:48;;;;;;;29.57;8.97;;;;;;;7.20;100.00;101783.56;5081783;28;20473;-81
2023/04/08 06:18:16;;;;;;;21.00;8.47;;;;;;;7.14;100.00;101784.56;5084504;28;20556;-81
2023/04/08 06:20:43;;;;;;;22.37;9.00;;;;;;;7.16;100.00;101785.13;5065034;28;20469;-81
2023/04/08 06:23:10;;;;;;;28.70;9.50;;;;;;;7.11;100.00;101787.75;5058980;28;20454;-81
2023/04/08 06:25:36;;;;;;;24.73;9.43;;;;;;;7.15;100.00;101798.84;5087039;28;21052;-81
2023/04/08 06:28:03;;;;;;;17.83;8.43;;;;;;;7.11;100.00;101786.94;5086721;28;20457;-81
2023/04/08 06:30:30;;;;;;;19.23;7.63;;;;;;;7.08;100.00;101796.31;5078451;28;20472;-81
2023/04/08 06:32:56;;;;;;;31.10;10.10;;;;;;;7.12;100.00;101789.38;5071919;28;20633;-81
2023/04/08 06:35:24;;;;;;;25.03;9.53;;;;;;;7.24;100.00;101790.09;5083935;28;20551;-81
2023/04/08 06:37:54;;;;;;;21.40;9.23;;;;;;;7.28;100.00;101799.31;5071122;28;20485;-81
2023/04/08 06:40:20;;;;;;;32.97;9.77;;;;;;;7.27;100.00;101803.06;5091824;28;20952;-80
2023/04/08 06:42:47;;;;;;;24.37;9.37;;;;;;;7.33;100.00;101804.75;5095515;28;20833;-80
2023/04/08 06:45:14;;;;;;;24.57;9.73;;;;;;;7.32;100.00;101811.22;5077794;28;20503;-81
2023/04/08 06:47:41;;;;;;;35.97;9.80;;;;;;;7.36;100.00;101816.13;5078659;28;20479;-79
2023/04/08 06:50:08;;;;;;;19.87;8.37;;;;;;;7.47;100.00;101823.28;5059584;28;20484;-81
2023/04/08 06:52:36;;;;;;;35.23;9.53;;;;;;;7.56;100.00;101821.78;5069409;28;20456;-81
2023/04/08 06:55:03;;;;;;;26.00;10.23;;;;;;;7.61;100.00;101827.22;5078398;28;20476;-80
2023/04/08 06:57:30;;;;;;;27.13;8.57;;;;;;;7.61;100.00;101823.72;5074001;28;20491;-80
2023/04/08 06:59:56;;;;;;;27.83;10.60;;;;;;;7.73;100.00;101821.72;5082873;28;20464;-80
2023/04/08 07:02:23;;;;;;;23.30;8.57;;;;;;;7.77;100.00;101830.94;5076827;28;20458;-79
2023/04/08 07:04:50;;;;;;;27.93;9.80;;;;;;;7.78;100.00;101830.69;5082716;28;20504;-80
2023/04/08 07:07:16;;;;;;;28.80;10.80;;;;;;;7.82;100.00;101836.38;5090386;28;20457;-79
2023/04/08 07:09:45;;;;;;;29.40;9.90;;;;;;;7.89;100.00;101841.59;5066930;28;20493;-80
2023/04/08 07:12:12;;;;;;;24.37;9.87;;;;;;;7.78;100.00;101846.03;5071649;28;20485;-79
2023/04/08 07:14:38;;;;;;;33.17;12.20;;;;;;;7.74;100.00;101840.34;5064711;28;20552;-81
2023/04/08 07:17:05;;;;;;;28.30;10.00;;;;;;;7.86;100.00;101842.91;5076423;28;20544;-80
2023/04/08 07:19:32;;;;;;;23.20;9.93;;;;;;;7.98;100.00;101837.41;5070818;28;20865;-79
2023/04/08 07:21:59;;;;;;;31.37;10.50;;;;;;;8.12;100.00;101844.03;5076631;28;20545;-79
2023/04/08 07:24:26;;;;;;;26.03;11.10;;;;;;;8.20;100.00;101842.75;5075083;28;20526;-80
2023/04/08 07:26:55;;;;;;;31.63;10.60;;;;;;;8.18;100.00;101851.09;5088773;28;20559;-80
2023/04/08 07:29:21;;;;;;;29.20;11.10;;;;;;;8.08;100.00;101859.09;5092339;28;20822;-79
2023/04/08 07:31:48;;;;;;;24.60;9.73;;;;;;;7.96;100.00;101869.19;5096063;28;20917;-80
2023/04/08 07:34:15;;;;;;;24.23;10.30;;;;;;;7.92;100.00;101863.47;5066808;28;20490;-79
2023/04/08 07:36:42;;;;;;;27.00;10.30;;;;;;;7.73;100.00;101864.88;5082042;28;20461;-80
2023/04/08 07:39:08;;;;;;;21.87;9.57;;;;;;;7.78;100.00;101868.44;5095891;28;20575;-80
2023/04/08 07:41:35;;;;;;;23.77;9.23;;;;;;;7.88;100.00;101867.78;5095599;28;20906;-80
2023/04/08 07:44:03;;;;;;;30.83;11.53;;;;;;;7.96;100.00;101870.00;5097692;28;20441;-79
2023/04/08 07:46:30;;;;;;;27.73;10.47;;;;;;;8.09;100.00;101874.19;5088917;28;20465;-80
2023/04/08 07:48:57;;;;;;;23.97;9.43;;;;;;;8.09;100.00;101877.72;5074287;28;20468;-80
2023/04/08 07:51:23;;;;;;;29.37;10.70;;;;;;;8.16;100.00;101882.13;5076670;28;20533;-79
2023/04/08 07:53:50;;;;;;;24.57;9.73;;;;;;;8.22;100.00;101883.78;5076805;28;20884;-79
2023/04/08 07:56:17;;;;;;;25.50;9.67;;;;;;;8.34;100.00;101887.19;5086132;28;20525;-79
2023/04/08 07:58:44;;;;;;;31.50;11.07;;;;;;;8.41;100.00;101884.28;5088771;28;21004;-79
2023/04/08 08:01:20;;;;;;;24.07;9.10;;;;;;;8.54;100.00;101887.44;5065905;28;20476;-80
2023/04/08 08:03:47;;;;;;;26.60;10.63;;;;;;;8.70;100.00;101901.06;5077211;28;20487;-79
2023/04/08 08:06:14;;;;;;;27.60;11.30;;;;;;;8.80;100.00;101890.34;5060102;28;20927;-79
2023/04/08 08:08:40;;;;;;;22.80;11.10;;;;;;;8.81;100.00;101892.81;5077042;28;20543;-80
2023/04/08 08:11:07;;;;;;;22.97;10.70;;;;;;;8.84;100.00;101896.88;5076596;28;21013;-80
2023/04/08 08:13:34;;;;;;;21.57;9.87;;;;;;;8.90;100.00;101895.84;5065141;28;20466;-80
2023/04/08 08:16:01;;;;;;;25.30;9.47;;;;;;;8.92;100.00;101892.88;5075414;28;20484;-80
2023/04/08 08:18:29;;;;;;;31.40;11.80;;;;;;;9.02;100.00;101888.38;5073913;28;20576;-81
2023/04/08 08:20:56;;;;;;;24.07;10.10;;;;;;;9.10;100.00;101887.09;5071862;28;20485;-80
2023/04/08 08:23:22;;;;;;;25.70;10.90;;;;;;;9.17;100.00;101890.41;5075076;28;20967;-80
2023/04/08 08:25:49;;;;;;;25.40;10.43;;;;;;;9.18;100.00;101889.31;5082184;28;20529;-80
2023/04/08 08:28:16;;;;;;;27.73;10.80;;;;;;;9.29;100.00;101884.78;5079434;28;20967;-81
2023/04/08 08:30:42;;;;;;;28.67;9.57;;;;;;;9.49;100.00;101894.94;5076871;28;20527;-80
2023/04/08 08:33:09;;;;;;;29.77;10.70;;;;;;;9.57;100.00;101894.44;5076516;28;20458;-80
2023/04/08 08:35:37;;;;;;;25.37;10.57;;;;;;;9.50;100.00;101904.66;5076371;28;20517;-79
2023/04/08 08:38:04;;;;;;;23.80;9.07;;;;;;;9.66;100.00;101897.47;5093307;28;20555;-80
2023/04/08 08:40:30;;;;;;;25.50;11.30;;;;;;;9.69;100.00;101910.44;5093313;28;20543;-80
2023/04/08 08:42:58;;;;;;;26.10;10.80;;;;;;;9.74;99.32;101910.47;5076687;28;20480;-80
2023/04/08 08:45:24;;;;;;;22.07;10.07;;;;;;;9.85;99.09;101912.97;5076721;28;20449;-80
2023/04/08 08:47:51;;;;;;;37.53;11.50;;;;;;;9.87;99.18;101915.41;5074238;28;20476;-80
2023/04/08 08:50:18;;;;;;;21.30;9.17;;;;;;;9.96;98.86;101923.84;5076125;28;20476;-81
2023/04/08 08:52:50;;;;;;;27.50;11.60;;;;;;;9.80;98.54;101917.56;5074392;28;20470;-81
2023/04/08 08:55:18;;;;;;;24.70;10.00;;;;;;;9.63;97.89;101925.84;5077763;28;20565;-81
2023/04/08 08:57:45;;;;;;;25.17;9.13;;;;;;;9.59;98.27;101922.03;5078067;28;20491;-82
2023/04/08 09:00:14;;;;;;;25.87;10.13;;;;;;;9.44;99.05;101921.94;5078441;28;20540;-81
2023/04/08 09:02:41;;;;;;;21.80;8.83;;;;;;;9.40;99.51;101923.53;5085965;28;20485;-80
2023/04/08 09:05:08;;;;;;;24.07;8.87;;;;;;;9.45;99.90;101934.38;5101689;28;20460;-79
2023/04/08 09:07:36;;;;;;;22.53;10.17;;;;;;;9.49;100.00;101935.50;5115636;28;20456;-79
2023/04/08 09:10:05;;;;;;;28.10;9.97;;;;;;;9.67;99.68;101937.78;5091795;28;20459;-81
2023/04/08 09:12:32;;;;;;;28.10;9.60;;;;;;;9.84;98.79;101943.03;5076973;28;20816;-80
2023/04/08 09:15:05;;;;;;;27.80;9.30;;;;;;;9.79;98.90;101946.50;5077534;28;21955;-81
2023/04/08 09:17:33;;;;;;;21.90;8.63;;;;;;;9.79;98.75;101949.22;5071214;28;20466;-80
2023/04/08 09:20:10;;;;;;;24.40;9.70;;;;;;;9.89;98.50;101953.06;5094821;28;20842;-81
2023/04/08 09:22:58;;;;;;;26.13;9.60;;;;;;;9.83;98.52;101949.53;5076917;28;20461;-79
2023/04/08 09:27:55;;;;;;;26.67;11.03;;;;;;;9.98;97.26;101949.59;5060007;28;20493;-69
2023/04/08 09:30:24;;;;;;;29.40;10.63;;;;;;;9.68;98.14;101957.53;5053322;28;20482;-69
2023/04/08 09:32:52;;;;;;;27.70;9.70;;;;;;;9.72;97.88;101959.44;5053608;28;20496;-70
2023/04/08 09:35:19;;;;;;;24.37;10.70;;;;;;;9.81;97.98;101967.88;5053013;28;20450;-69
2023/04/08 09:37:46;;;;;;;22.27;10.10;;;;;;;9.89;97.73;101967.41;5059870;28;20539;-68
2023/04/08 09:40:14;;;;;;;26.70;11.63;;;;;;;10.11;96.91;101978.06;5072952;28;20525;-68
2023/04/08 09:42:44;;;;;;;26.57;10.73;;;;;;;9.99;96.17;101974.75;5071085;28;20453;-69
2023/04/08 09:45:13;;;;;;;29.03;10.97;;;;;;;9.77;96.39;101969.50;5067650;28;20461;-69
2023/04/08 09:47:52;;;;;;;23.40;10.70;;;;;;;9.84;96.94;101976.31;5071358;28;20589;-70
2023/04/08 09:50:24;;;;;;;26.17;10.70;;;;;;;9.87;98.04;101974.94;5072245;28;20452;-69
2023/04/08 09:52:57;;;;;;;33.43;9.47;;;;;;;10.03;97.62;101973.16;5070253;28;20477;-71
2023/04/08 09:55:27;;;;;;;22.23;8.80;;;;;;;10.09;96.02;101972.94;5068942;28;20445;-70
2023/04/08 09:57:59;;;;;;;27.70;10.63;;;;;;;9.89;96.65;101970.09;5072801;28;20540;-71
2023/04/08 10:00:32;;;;;;;29.77;10.27;;;;;;;10.14;95.96;101969.44;5072144;28;20453;-67
2023/04/08 10:03:06;;;;;;;22.23;9.83;;;;;;;10.05;96.37;101977.25;5072852;28;20457;-69
2023/04/08 10:05:37;;;;;;;26.63;10.27;;;;;;;10.27;96.00;101976.25;5072962;28;20421;-68
2023/04/08 10:08:05;;;;;;;35.90;11.50;;;;;;;10.31;95.21;101980.91;5072790;28;20461;-68
2023/04/08 10:10:32;;;;;;;25.17;10.70;;;;;;;10.19;94.92;101977.56;5072812;28;20441;-70
2023/04/08 10:12:59;;;;;;;32.23;11.73;;;;;;;10.40;95.20;101981.19;5072545;28;20441;-70
2023/04/08 10:15:28;;;;;;;21.50;10.37;;;;;;;10.53;95.08;101979.88;5072852;28;20441;-69
2023/04/08 10:17:56;;;;;;;30.80;11.20;;;;;;;10.45;93.59;101975.00;5069341;28;20485;-68
2023/04/08 10:20:43;;;;;;;29.67;11.17;;;;;;;10.66;93.39;101984.81;5072568;28;20465;-68
2023/04/08 10:23:12;;;;;;;20.97;9.27;;;;;;;10.61;91.49;101972.06;5069227;28;20462;-70
2023/04/08 10:25:40;;;;;;;23.47;10.53;;;;;;;10.80;92.23;101975.09;5065797;28;20880;-68
2023/04/08 10:28:25;;;;;;;23.17;9.53;;;;;;;10.98;92.34;101978.34;5071705;28;20933;-68
2023/04/08 10:30:55;;;;;;;19.87;8.90;;;;;;;11.18;92.18;101972.16;5072714;28;20473;-69
2023/04/08 10:33:23;;;;;;;27.67;9.90;;;;;;;11.28;91.29;101975.66;5066266;28;20446;-67
2023/04/08 10:35:53;;;;;;;23.27;8.47;;;;;;;11.33;90.49;101983.84;5073287;28;20467;-68
2023/04/08 10:38:21;;;;;;;29.27;8.60;;;;;;;11.33;90.68;101981.13;5072428;28;20840;-67
2023/04/08 10:40:50;;;;;;;23.17;9.20;;;;;;;11.30;89.70;101983.56;5072876;28;20437;-65
2023/04/08 10:43:17;;;;;;;19.50;9.00;;;;;;;11.33;89.22;101983.84;5072119;28;20813;-68
2023/04/08 10:45:44;;;;;;;30.10;9.57;;;;;;;11.28;88.96;101983.81;5071788;28;20528;-67
2023/04/08 10:48:14;;;;;;;22.70;9.60;;;;;;;11.33;88.84;101975.69;5071931;28;20837;-68
2023/04/08 10:50:41;;;;;;;21.13;9.40;;;;;;;11.29;89.40;101982.75;5074510;28;20945;-68
2023/04/08 10:53:08;;;;;;;19.27;7.87;;;;;;;11.28;89.04;101983.81;5075241;28;20474;-68
2023/04/08 10:55:34;;;;;;;20.90;8.30;;;;;;;11.19;88.37;101977.31;5075655;28;20445;-69
2023/04/08 10:58:06;;;;;;;20.47;10.10;;;;;;;11.13;87.84;101978.38;5073559;28;20533;-69
2023/04/08 11:00:34;;;;;;;19.53;8.10;;;;;;;11.22;87.93;101982.19;5075280;28;20476;-68
2023/04/08 11:03:01;;;;;;;20.97;8.77;;;;;;;11.44;87.33;101986.53;5074961;28;20446;-67
2023/04/08 11:05:31;;;;;;;18.17;8.90;;;;;;;11.73;87.14;101984.03;5074843;28;20461;-68
2023/04/08 11:07:58;;;;;;;25.57;10.50;;;;;;;12.12;85.99;101978.81;5075016;28;20643;-70
2023/04/08 11:10:25;;;;;;;21.20;8.67;;;;;;;12.45;83.76;101976.53;5073776;28;20489;-70
2023/04/08 11:12:54;;;;;;;25.30;9.53;;;;;;;12.57;81.22;101982.44;5077563;28;20533;-73
2023/04/08 11:15:21;;;;;;;18.20;9.00;;;;;;;12.59;79.89;101974.81;5081948;28;20441;-71
2023/04/08 11:17:49;;;;;;;17.17;7.77;;;;;;;12.57;77.84;101982.44;5074383;28;20929;-71
2023/04/08 11:20:17;;;;;;;18.07;7.90;;;;;;;12.73;78.51;101975.81;5074371;28;20524;-70
2023/04/08 11:22:45;;;;;;;17.30;7.40;;;;;;;12.84;77.29;101980.13;5078790;28;20464;-70
2023/04/08 11:25:12;;;;;;;19.47;8.67;;;;;;;12.79;76.13;101985.59;5079804;28;20458;-72